createdAt,value
2022-12-24T00:01:09.898Z,98482.38
2022-12-24T00:06:22.436Z,98477.31
2022-12-24T00:11:24.964Z,98473.03
2022-12-24T00:16:27.827Z,98482.41
2022-12-24T00:21:30.435Z,98486.63
2022-12-24T00:26:34.047Z,98450.84
2022-12-24T00:31:36.581Z,98485.81
2022-12-24T00:36:39.133Z,98496.84
2022-12-24T00:41:41.849Z,98514.75
2022-12-24T00:46:44.523Z,98507.97
2022-12-24T00:51:47.247Z,98499.44
2022-12-24T00:56:50.001Z,98509.63
2022-12-24T01:01:52.768Z,98494.31
2022-12-24T01:06:56.288Z,98495.16
2022-12-24T01:11:58.819Z,98502.00
2022-12-24T01:17:01.432Z,98489.22
2022-12-24T01:22:04.081Z,98483.25
2022-12-24T01:27:06.730Z,98489.25
2022-12-24T01:32:09.314Z,98496.88
2022-12-24T01:37:11.869Z,98489.22
2022-12-24T01:42:41.478Z,98484.97
2022-12-24T01:47:44.355Z,98486.66
2022-12-24T01:52:46.938Z,98504.53
2022-12-24T01:57:56.729Z,98507.91
2022-12-24T02:02:59.973Z,98507.09
2022-12-24T02:08:04.789Z,98508.81
2022-12-24T02:13:08.185Z,98513.09
2022-12-24T02:19:03.201Z,98515.66
2022-12-24T02:24:23.320Z,98518.19
2022-12-24T02:29:47.291Z,98524.16
2022-12-24T02:34:58.352Z,98515.66
2022-12-24T02:40:15.952Z,98511.38
2022-12-24T02:45:23.900Z,98515.63
2022-12-24T02:50:27.393Z,98506.25
2022-12-24T02:55:29.918Z,98515.66
2022-12-24T03:01:17.391Z,98513.94
2022-12-24T03:06:44.518Z,98509.69
2022-12-24T03:11:58.427Z,98488.34
2022-12-24T03:17:03.677Z,98502.84
2022-12-24T03:22:10.046Z,98507.94
2022-12-24T03:27:14.422Z,98496.88
2022-12-24T03:32:25.079Z,98502.00
2022-12-24T03:37:27.823Z,98502.00
2022-12-24T03:42:30.367Z,98503.72
2022-12-24T03:47:33.096Z,98497.75
2022-12-24T03:52:35.667Z,98498.59
2022-12-24T03:57:38.298Z,98502.03
2022-12-24T04:02:41.211Z,98495.16
2022-12-24T04:07:44.828Z,98490.94
2022-12-24T04:12:47.409Z,98502.84
2022-12-24T04:17:49.946Z,98494.34
2022-12-24T04:22:53.482Z,98498.59
2022-12-24T04:27:56.019Z,98492.63
2022-12-24T04:32:58.661Z,98484.97
2022-12-24T04:38:01.211Z,98474.72
2022-12-24T04:43:03.878Z,98477.28
2022-12-24T04:48:06.465Z,98475.56
2022-12-24T04:53:09.061Z,98477.28
2022-12-24T04:58:12.106Z,98463.66
2022-12-24T05:03:14.772Z,98473.03
2022-12-24T05:08:17.329Z,98471.31
2022-12-24T05:13:19.893Z,98439.78
2022-12-24T05:18:23.216Z,98464.50
2022-12-24T05:23:44.992Z,98450.88
2022-12-24T05:28:48.337Z,98441.47
2022-12-24T05:33:51.591Z,98454.28
2022-12-24T05:38:54.811Z,98446.59
2022-12-24T05:43:57.720Z,98455.13
2022-12-24T05:49:00.289Z,98464.50
2022-12-24T05:54:02.973Z,98426.97
2022-12-24T05:59:05.558Z,98442.31
2022-12-24T06:04:08.163Z,98448.28
2022-12-24T06:09:11.087Z,98452.53
2022-12-24T06:14:13.678Z,98450.00
2022-12-24T06:19:16.199Z,98439.78
2022-12-24T06:24:19.101Z,98452.56
2022-12-24T06:29:21.652Z,98455.09
2022-12-24T06:34:24.370Z,98448.28
2022-12-24T06:39:27.014Z,98439.75
2022-12-24T06:44:32.475Z,98438.94
2022-12-24T06:49:35.214Z,98437.22
2022-12-24T06:54:37.911Z,98427.84
2022-12-24T06:59:40.527Z,98437.22
2022-12-24T07:04:45.472Z,98437.22
2022-12-24T07:09:48.164Z,98434.66
2022-12-24T07:14:50.801Z,98440.63
2022-12-24T07:19:53.515Z,98446.63
2022-12-24T07:24:56.237Z,98429.56
2022-12-24T07:29:58.925Z,98448.31
2022-12-24T07:35:04.960Z,98432.97
2022-12-24T07:40:09.861Z,98445.75
2022-12-24T07:45:12.837Z,98439.78
2022-12-24T07:50:15.592Z,98447.47
2022-12-24T07:55:18.341Z,98440.63
2022-12-24T08:00:21.174Z,98411.66
2022-12-24T08:05:23.792Z,98433.81
2022-12-24T08:10:26.462Z,98430.38
2022-12-24T08:15:29.043Z,98438.06
2022-12-24T08:20:31.670Z,98447.47
2022-12-24T08:25:35.052Z,98437.22
2022-12-24T08:30:37.705Z,98420.16
2022-12-24T08:35:40.430Z,98427.84
2022-12-24T08:40:44.173Z,98419.28
2022-12-24T08:45:49.299Z,98425.25
2022-12-24T08:50:51.879Z,98428.69
2022-12-24T08:56:02.452Z,98423.53
2022-12-24T09:01:14.393Z,98400.53
2022-12-24T09:06:17.249Z,98411.63
2022-12-24T09:11:20.690Z,98407.38
2022-12-24T09:16:23.555Z,98416.75
2022-12-24T09:21:26.689Z,98393.75
2022-12-24T09:26:31.681Z,98404.81
2022-12-24T09:31:34.388Z,98406.50
2022-12-24T09:36:37.057Z,98395.44
2022-12-24T09:42:04.027Z,98411.63
2022-12-24T09:47:21.887Z,98414.19
2022-12-24T09:52:35.150Z,98393.75
2022-12-24T09:57:42.050Z,98414.19
2022-12-24T10:02:44.854Z,98405.66
2022-12-24T10:08:07.315Z,98398.88
2022-12-24T10:13:35.815Z,98412.47
2022-12-24T10:19:05.656Z,98405.69
2022-12-24T10:24:14.011Z,98406.53
2022-12-24T10:29:36.724Z,98409.94
2022-12-24T10:34:44.713Z,98409.09
2022-12-24T10:39:47.384Z,98412.53
2022-12-24T10:44:57.479Z,98411.66
2022-12-24T10:50:14.019Z,98412.50
2022-12-24T10:55:19.469Z,98416.75
2022-12-24T11:00:30.004Z,98420.19
2022-12-24T11:05:36.724Z,98425.28
2022-12-24T11:10:43.861Z,98434.66
2022-12-24T11:15:47.148Z,98443.19
2022-12-24T11:20:52.620Z,98438.94
2022-12-24T11:25:57.250Z,98456.84
2022-12-24T11:31:18.096Z,98440.63
2022-12-24T11:36:23.842Z,98465.38
2022-12-24T11:41:27.096Z,98455.97
2022-12-24T11:46:38.908Z,98437.19
2022-12-24T11:52:05.006Z,98473.03
2022-12-24T11:57:11.771Z,98460.19
2022-12-24T12:02:17.374Z,98490.06
2022-12-24T12:07:28.989Z,98501.16
2022-12-24T12:12:41.109Z,98502.88
2022-12-24T12:17:56.979Z,98491.78
2022-12-24T12:23:33.157Z,98511.41
2022-12-24T12:28:56.460Z,98517.31
2022-12-24T12:34:20.488Z,98525.88
2022-12-24T12:39:24.039Z,98522.41
2022-12-24T12:44:46.074Z,98521.44
2022-12-24T12:50:10.008Z,98547.03
2022-12-24T12:55:31.078Z,98551.38
2022-12-24T13:00:38.718Z,98559.78
2022-12-24T13:06:09.655Z,98556.38
2022-12-24T13:11:22.818Z,98567.41
2022-12-24T13:17:06.670Z,98580.88
2022-12-24T13:22:16.575Z,98587.81
2022-12-24T13:27:25.100Z,98586.13
2022-12-24T13:32:28.640Z,98606.53
2022-12-24T13:37:31.203Z,98588.00
2022-12-24T13:42:59.697Z,98599.16
2022-12-24T13:48:07.958Z,98614.38
2022-12-24T13:53:41.992Z,98617.53
2022-12-24T13:58:48.760Z,98635.47
2022-12-24T14:03:58.258Z,98642.41
2022-12-24T14:09:09.434Z,98606.72
2022-12-24T14:14:26.982Z,98658.81
2022-12-24T14:19:40.532Z,98669.84
2022-12-24T14:24:46.449Z,98668.97
2022-12-24T14:29:55.289Z,98678.38
2022-12-24T14:35:21.365Z,98683.56
2022-12-24T14:40:29.565Z,98667.38
2022-12-24T14:45:43.559Z,98692.19
2022-12-24T14:51:03.234Z,98694.78
2022-12-24T14:56:17.589Z,98705.81
2022-12-24T15:01:26.915Z,98701.53
2022-12-24T15:06:33.851Z,98681.78
2022-12-24T15:11:36.748Z,98726.16
2022-12-24T15:16:40.284Z,98724.44
2022-12-24T15:21:44.299Z,98726.16
2022-12-24T15:26:46.912Z,98742.34
2022-12-24T15:31:57.203Z,98738.88
2022-12-24T15:37:38.266Z,98748.34
2022-12-24T15:42:44.196Z,98720.19
2022-12-24T15:47:59.855Z,98760.34
2022-12-24T15:53:20.721Z,98770.53
2022-12-24T15:58:28.010Z,98774.00
2022-12-24T16:03:31.086Z,98782.53
2022-12-24T16:08:35.590Z,98785.13
2022-12-24T16:13:44.064Z,98792.72
2022-12-24T16:18:55.375Z,98804.66
2022-12-24T16:24:21.482Z,98807.16
2022-12-24T16:29:24.559Z,98803.75
2022-12-24T16:34:31.956Z,98822.53
2022-12-24T16:39:35.311Z,98831.06
2022-12-24T16:44:38.860Z,98837.84
2022-12-24T16:49:41.646Z,98840.34
2022-12-24T16:54:44.429Z,98833.41
2022-12-24T16:59:47.327Z,98853.06
2022-12-24T17:04:50.931Z,98860.75
2022-12-24T17:09:53.543Z,98871.84
2022-12-24T17:14:56.525Z,98864.13
2022-12-24T17:19:59.196Z,98847.81
2022-12-24T17:25:01.950Z,98880.09
2022-12-24T17:30:06.379Z,98864.78
2022-12-24T17:35:09.535Z,98895.56
2022-12-24T17:40:12.573Z,98887.88
2022-12-24T17:45:15.284Z,98900.69
2022-12-24T17:50:17.931Z,98906.59
2022-12-24T17:55:22.869Z,98880.06
2022-12-24T18:00:29.513Z,98935.72
2022-12-24T18:05:35.682Z,98904.09
2022-12-24T18:10:38.323Z,98943.38
2022-12-24T18:15:41.435Z,98957.88
2022-12-24T18:20:46.946Z,98960.94
2022-12-24T18:25:49.783Z,98953.09
2022-12-24T18:31:04.012Z,98983.56
2022-12-24T18:36:07.234Z,98985.25
2022-12-24T18:41:13.889Z,98984.94
2022-12-24T18:46:23.632Z,99014.66
2022-12-24T18:51:30.987Z,99031.47
2022-12-24T18:56:33.922Z,99032.22
2022-12-24T19:01:37.182Z,99046.84
2022-12-24T19:06:40.254Z,99052.16
2022-12-24T19:11:43.034Z,99063.25
2022-12-24T19:16:46.077Z,99060.00
2022-12-24T19:21:49.162Z,99048.69
2022-12-24T19:26:52.572Z,99070.28
2022-12-24T19:31:55.362Z,99064.84
2022-12-24T19:36:57.974Z,99091.47
2022-12-24T19:42:01.187Z,99061.25
2022-12-24T19:47:03.939Z,99050.78
2022-12-24T19:52:06.516Z,99092.94
2022-12-24T19:57:09.131Z,99086.53
2022-12-24T20:02:11.918Z,99101.66
2022-12-24T20:07:15.015Z,99121.03
2022-12-24T20:12:17.703Z,99125.13
2022-12-24T20:17:20.453Z,99140.41
2022-12-24T20:22:25.907Z,99145.53
2022-12-24T20:27:28.818Z,99150.59
2022-12-24T20:32:31.353Z,99132.59
2022-12-24T20:37:43.716Z,99149.03
2022-12-24T20:42:48.760Z,99165.94
2022-12-24T20:47:52.061Z,99167.44
2022-12-24T20:52:55.047Z,99139.66
2022-12-24T20:57:57.654Z,99178.97
2022-12-24T21:03:00.506Z,99193.47
2022-12-24T21:08:03.636Z,99178.56
2022-12-24T21:13:06.686Z,99214.72
2022-12-24T21:18:12.298Z,99219.25
2022-12-24T21:23:15.067Z,99195.09
2022-12-24T21:28:17.757Z,99227.97
2022-12-24T21:33:20.626Z,99220.91
2022-12-24T21:38:23.173Z,99236.41
2022-12-24T21:43:25.797Z,99245.13
2022-12-24T21:48:46.829Z,99249.47
2022-12-24T21:54:07.912Z,99230.72
2022-12-24T21:59:10.503Z,99249.63
2022-12-24T22:04:13.035Z,99253.16
2022-12-24T22:09:34.085Z,99264.38
2022-12-24T22:14:36.758Z,99259.06
2022-12-24T22:19:39.393Z,99280.47
2022-12-24T22:24:42.147Z,99301.09
2022-12-24T22:29:44.961Z,99310.22
2022-12-24T22:34:49.507Z,99307.38
2022-12-24T22:39:52.092Z,99298.44
2022-12-24T22:44:54.623Z,99338.75
2022-12-24T22:49:57.182Z,99350.75
2022-12-24T22:55:00.275Z,99361.44
2022-12-24T23:00:06.107Z,99359.44
2022-12-24T23:05:14.348Z,99372.69
2022-12-24T23:10:17.126Z,99386.78
2022-12-24T23:15:19.702Z,99385.22
2022-12-24T23:20:22.219Z,99385.16
2022-12-24T23:25:25.002Z,99390.34
2022-12-24T23:30:27.622Z,99398.97
2022-12-24T23:35:30.830Z,99399.72
2022-12-24T23:40:33.438Z,99406.44
2022-12-24T23:45:36.488Z,99412.66
2022-12-24T23:50:39.082Z,99430.38
2022-12-24T23:55:42.317Z,99414.47
